createdAt,value
2019-05-26T00:01:22.730Z,96.00
2019-05-26T00:03:50.342Z,96.00
2019-05-26T00:06:17.941Z,95.90
2019-05-26T00:08:45.977Z,96.00
2019-05-26T00:11:13.617Z,95.90
2019-05-26T00:13:41.309Z,95.90
2019-05-26T00:16:28.441Z,95.90
2019-05-26T00:18:56.047Z,95.80
2019-05-26T00:21:23.622Z,95.80
2019-05-26T00:23:51.255Z,95.70
2019-05-26T00:26:18.936Z,95.60
2019-05-26T00:28:46.537Z,95.60
2019-05-26T00:31:14.181Z,95.50
2019-05-26T00:33:41.856Z,95.60
2019-05-26T00:36:09.513Z,95.60
2019-05-26T00:38:37.105Z,95.50
2019-05-26T00:41:04.705Z,95.70
2019-05-26T00:43:32.359Z,95.80
2019-05-26T00:45:59.973Z,95.90
2019-05-26T00:48:27.545Z,95.90
2019-05-26T00:50:55.110Z,95.50
2019-05-26T00:53:22.725Z,95.60
2019-05-26T00:55:50.413Z,95.70
2019-05-26T00:58:18.025Z,95.50
2019-05-26T01:00:45.661Z,95.40
2019-05-26T01:03:13.341Z,95.10
2019-05-26T01:05:41.282Z,94.90
2019-05-26T01:08:08.945Z,95.00
2019-05-26T01:10:36.733Z,95.20
2019-05-26T01:13:05.129Z,95.00
2019-05-26T01:15:32.709Z,95.00
2019-05-26T01:18:00.321Z,94.70
2019-05-26T01:20:27.897Z,94.50
2019-05-26T01:22:55.608Z,94.40
2019-05-26T01:25:24.197Z,94.30
2019-05-26T01:27:51.868Z,94.30
2019-05-26T01:30:24.017Z,94.20
2019-05-26T01:32:51.645Z,94.20
2019-05-26T01:35:19.265Z,94.30
2019-05-26T01:37:47.086Z,94.20
2019-05-26T01:40:14.798Z,94.30
2019-05-26T01:42:42.437Z,94.10
2019-05-26T01:45:11.101Z,94.40
2019-05-26T01:47:38.731Z,94.30
2019-05-26T01:50:06.637Z,94.20
2019-05-26T01:52:34.245Z,94.20
2019-05-26T01:55:01.876Z,94.40
2019-05-26T01:57:29.463Z,94.50
2019-05-26T01:59:57.201Z,94.90
2019-05-26T02:02:24.862Z,95.20
2019-05-26T02:04:52.447Z,95.50
2019-05-26T02:07:20.048Z,95.40
2019-05-26T02:09:47.741Z,95.40
2019-05-26T02:12:15.473Z,95.30
2019-05-26T02:14:43.119Z,95.10
2019-05-26T02:17:10.912Z,95.10
2019-05-26T02:19:38.598Z,94.90
2019-05-26T02:22:06.443Z,94.60
2019-05-26T02:24:34.065Z,94.60
2019-05-26T02:27:01.749Z,94.50
2019-05-26T02:29:29.355Z,94.50
2019-05-26T02:31:56.965Z,94.50
2019-05-26T02:34:24.594Z,94.40
2019-05-26T02:36:52.285Z,94.40
2019-05-26T02:39:19.930Z,94.40
2019-05-26T02:41:47.598Z,94.50
2019-05-26T02:44:15.272Z,94.50
2019-05-26T02:46:43.154Z,94.50
2019-05-26T02:49:10.918Z,94.50
2019-05-26T02:51:38.538Z,94.30
2019-05-26T02:54:06.181Z,94.30
2019-05-26T02:56:33.765Z,94.40
2019-05-26T02:59:01.354Z,94.40
2019-05-26T03:01:30.158Z,94.40
2019-05-26T03:03:58.128Z,94.20
2019-05-26T03:06:27.446Z,94.20
2019-05-26T03:08:57.682Z,94.30
2019-05-26T03:11:28.573Z,94.40
2019-05-26T03:13:59.421Z,94.30
2019-05-26T03:16:30.125Z,94.30
2019-05-26T03:19:00.973Z,94.10
2019-05-26T03:21:30.882Z,94.10
2019-05-26T03:24:02.088Z,94.10
2019-05-26T03:26:29.714Z,94.10
2019-05-26T03:28:57.365Z,94.10
2019-05-26T03:31:24.955Z,94.10
2019-05-26T03:33:52.700Z,94.30
2019-05-26T03:36:20.276Z,94.20
2019-05-26T03:38:48.001Z,94.30
2019-05-26T03:41:15.753Z,94.20
2019-05-26T03:43:43.369Z,94.40
2019-05-26T03:46:18.361Z,94.50
2019-05-26T03:48:46.452Z,94.60
2019-05-26T03:51:14.294Z,94.70
2019-05-26T03:53:42.016Z,94.70
2019-05-26T03:56:09.635Z,94.80
2019-05-26T03:58:37.233Z,95.00
2019-05-26T04:01:04.911Z,95.10
2019-05-26T04:03:32.506Z,95.20
2019-05-26T04:06:00.113Z,95.40
2019-05-26T04:08:27.722Z,95.20
2019-05-26T04:10:55.330Z,95.30
2019-05-26T04:13:22.924Z,94.80
2019-05-26T04:15:50.665Z,94.50
2019-05-26T04:18:18.283Z,94.40
2019-05-26T04:20:46.137Z,94.40
2019-05-26T04:23:13.918Z,94.40
2019-05-26T04:25:41.528Z,94.30
2019-05-26T04:28:09.560Z,94.20
2019-05-26T04:30:37.242Z,94.00
2019-05-26T04:33:04.899Z,93.90
2019-05-26T04:35:33.487Z,94.00
2019-05-26T04:38:01.118Z,93.90
2019-05-26T04:40:28.881Z,94.00
2019-05-26T04:42:56.468Z,94.10
2019-05-26T04:45:24.926Z,93.70
2019-05-26T04:47:52.576Z,93.80
2019-05-26T04:50:20.278Z,93.60
2019-05-26T04:53:04.576Z,93.50
2019-05-26T04:55:17.628Z,93.50
2019-05-26T04:57:45.305Z,93.20
2019-05-26T05:00:13.522Z,93.30
2019-05-26T05:02:41.189Z,93.00
2019-05-26T05:05:09.546Z,93.00
2019-05-26T05:07:37.132Z,92.40
2019-05-26T05:10:05.178Z,92.10
2019-05-26T05:12:32.757Z,91.90
2019-05-26T05:15:00.405Z,91.60
2019-05-26T05:17:28.019Z,91.70
2019-05-26T05:19:55.680Z,91.90
2019-05-26T05:22:23.330Z,92.00
2019-05-26T05:24:51.093Z,92.60
2019-05-26T05:27:18.710Z,92.80
2019-05-26T05:29:46.341Z,92.90
2019-05-26T05:32:14.049Z,92.80
2019-05-26T05:34:41.744Z,92.70
2019-05-26T05:37:09.352Z,92.70
2019-05-26T05:39:37.029Z,92.80
2019-05-26T05:42:04.670Z,93.10
2019-05-26T05:44:34.524Z,93.20
2019-05-26T05:47:02.179Z,93.40
2019-05-26T05:49:30.355Z,93.70
2019-05-26T05:51:58.049Z,93.60
2019-05-26T05:54:25.696Z,93.70
2019-05-26T05:56:55.609Z,93.40
2019-05-26T05:59:25.022Z,93.50
2019-05-26T06:01:52.740Z,93.50
2019-05-26T06:04:20.555Z,93.40
2019-05-26T06:06:48.347Z,93.30
2019-05-26T06:09:16.088Z,93.10
2019-05-26T06:11:43.910Z,92.80
2019-05-26T06:14:11.574Z,92.70
2019-05-26T06:16:39.217Z,92.70
2019-05-26T06:19:06.862Z,92.70
2019-05-26T06:21:34.534Z,92.30
2019-05-26T06:24:03.046Z,92.20
2019-05-26T06:26:30.714Z,91.70
2019-05-26T06:28:58.326Z,91.70
2019-05-26T06:31:25.991Z,91.20
2019-05-26T06:33:53.717Z,91.50
2019-05-26T06:36:21.398Z,91.40
2019-05-26T06:38:49.098Z,91.30
2019-05-26T06:41:32.216Z,91.40
2019-05-26T06:43:46.261Z,91.30
2019-05-26T06:46:13.933Z,91.10
2019-05-26T06:48:41.550Z,90.80
2019-05-26T06:51:09.235Z,90.80
2019-05-26T06:53:37.645Z,90.60
2019-05-26T06:56:05.288Z,90.60
2019-05-26T06:58:32.927Z,90.60
2019-05-26T07:01:00.947Z,90.50
2019-05-26T07:03:28.832Z,90.50
2019-05-26T07:05:56.570Z,90.50
2019-05-26T07:08:24.309Z,90.10
2019-05-26T07:10:52.080Z,89.70
2019-05-26T07:13:19.693Z,89.40
2019-05-26T07:15:47.437Z,89.20
2019-05-26T07:18:15.149Z,89.40
2019-05-26T07:20:42.749Z,89.40
2019-05-26T07:23:10.654Z,89.30
2019-05-26T07:25:38.644Z,89.10
2019-05-26T07:28:06.333Z,88.70
2019-05-26T07:30:33.947Z,89.20
2019-05-26T07:33:01.537Z,88.10
2019-05-26T07:35:32.943Z,88.60
2019-05-26T07:37:59.641Z,87.90
2019-05-26T07:40:27.252Z,88.60
2019-05-26T07:42:57.949Z,87.60
2019-05-26T07:45:28.692Z,87.20
2019-05-26T07:47:57.665Z,87.40
2019-05-26T07:50:25.261Z,87.80
2019-05-26T07:52:52.869Z,87.70
2019-05-26T07:55:20.449Z,87.20
2019-05-26T07:57:48.214Z,86.70
2019-05-26T08:00:16.133Z,86.60
2019-05-26T08:02:43.767Z,85.90
2019-05-26T08:05:11.586Z,84.40
2019-05-26T08:07:39.278Z,83.50
2019-05-26T08:10:07.026Z,82.80
2019-05-26T08:12:34.633Z,82.80
2019-05-26T08:15:02.384Z,83.30
2019-05-26T08:17:29.965Z,81.80
2019-05-26T08:19:57.569Z,81.30
2019-05-26T08:22:25.209Z,81.40
2019-05-26T08:24:54.081Z,80.50
2019-05-26T08:27:21.731Z,79.80
2019-05-26T08:29:49.325Z,80.60
2019-05-26T08:32:17.125Z,80.40
2019-05-26T08:34:44.752Z,80.20
2019-05-26T08:37:12.485Z,79.60
2019-05-26T08:39:40.144Z,79.60
2019-05-26T08:42:07.765Z,79.10
2019-05-26T08:44:35.383Z,79.20
2019-05-26T08:47:03.185Z,78.30
2019-05-26T08:49:30.766Z,78.90
2019-05-26T08:51:58.413Z,78.50
2019-05-26T08:54:26.721Z,78.80
2019-05-26T08:56:54.329Z,78.10
2019-05-26T08:59:21.937Z,76.20
2019-05-26T09:01:49.621Z,74.60
2019-05-26T09:04:17.305Z,75.50
2019-05-26T09:06:45.013Z,75.90
2019-05-26T09:09:13.893Z,75.10
2019-05-26T09:11:41.485Z,74.20
2019-05-26T09:14:09.108Z,72.10
2019-05-26T09:16:36.702Z,70.60
2019-05-26T09:19:04.628Z,70.30
2019-05-26T09:21:32.241Z,70.70
2019-05-26T09:23:59.879Z,70.50
2019-05-26T09:29:12.801Z,70.30
2019-05-26T09:31:40.417Z,69.40
2019-05-26T09:34:08.046Z,69.20
2019-05-26T09:36:35.672Z,64.80
2019-05-26T09:39:05.451Z,63.80
2019-05-26T09:41:33.056Z,65.70
2019-05-26T09:44:00.731Z,65.80
2019-05-26T09:46:28.350Z,65.00
2019-05-26T09:48:55.965Z,64.50
2019-05-26T09:51:23.581Z,63.80
2019-05-26T09:54:01.159Z,62.80
2019-05-26T09:56:20.731Z,61.70
2019-05-26T09:58:48.460Z,60.30
2019-05-26T10:01:16.126Z,60.60
2019-05-26T10:03:43.726Z,59.70
2019-05-26T10:06:11.358Z,60.30
2019-05-26T10:08:38.998Z,59.50
2019-05-26T10:11:06.662Z,58.80
2019-05-26T10:13:34.330Z,59.00
2019-05-26T10:16:02.319Z,57.70
2019-05-26T10:18:30.232Z,57.30
2019-05-26T10:20:58.942Z,56.40
2019-05-26T10:23:26.624Z,57.60
2019-05-26T10:25:54.269Z,56.30
2019-05-26T10:28:21.927Z,57.40
2019-05-26T10:30:49.830Z,55.90
2019-05-26T10:33:23.717Z,55.70
2019-05-26T10:35:51.544Z,55.00
2019-05-26T10:38:19.158Z,54.70
2019-05-26T10:40:46.905Z,53.70
2019-05-26T10:43:15.883Z,53.90
2019-05-26T10:45:44.006Z,53.00
2019-05-26T10:48:11.613Z,53.50
2019-05-26T10:50:39.276Z,52.20
2019-05-26T10:53:06.895Z,52.50
2019-05-26T10:55:34.496Z,52.70
2019-05-26T10:58:02.106Z,51.90
2019-05-26T11:00:32.847Z,51.50
2019-05-26T11:02:59.323Z,52.80
2019-05-26T11:05:26.933Z,53.00
2019-05-26T11:07:54.608Z,54.30
2019-05-26T11:10:22.230Z,54.40
2019-05-26T11:12:49.934Z,54.40
2019-05-26T11:15:18.155Z,53.50
2019-05-26T11:17:45.825Z,53.20
2019-05-26T11:20:13.666Z,54.80
2019-05-26T11:22:41.339Z,55.10
2019-05-26T11:25:10.159Z,55.80
2019-05-26T11:27:37.766Z,55.70
2019-05-26T11:30:06.621Z,56.40
2019-05-26T11:32:34.262Z,55.70
2019-05-26T11:35:02.324Z,56.40
2019-05-26T11:37:30.101Z,56.60
2019-05-26T11:39:57.723Z,57.40
2019-05-26T11:42:25.434Z,57.90
2019-05-26T11:44:53.118Z,56.70
2019-05-26T11:47:20.774Z,56.30
2019-05-26T11:49:48.501Z,57.80
2019-05-26T11:52:19.970Z,57.80
2019-05-26T11:54:45.681Z,58.70
2019-05-26T11:57:13.308Z,57.20
2019-05-26T11:59:40.921Z,56.40
2019-05-26T12:02:09.662Z,56.00
2019-05-26T12:04:37.276Z,56.40
2019-05-26T12:07:04.963Z,56.00
2019-05-26T12:09:32.702Z,56.20
2019-05-26T12:12:00.295Z,57.40
2019-05-26T12:14:34.973Z,53.70
2019-05-26T12:17:16.848Z,56.10
2019-05-26T12:19:44.449Z,56.20
2019-05-26T12:22:12.068Z,56.10
2019-05-26T12:24:39.678Z,52.70
2019-05-26T12:27:07.313Z,53.40
2019-05-26T12:29:34.923Z,52.00
2019-05-26T12:32:02.586Z,50.80
2019-05-26T12:34:30.325Z,50.60
2019-05-26T12:36:57.957Z,50.60
2019-05-26T12:39:25.613Z,50.40
2019-05-26T12:41:53.283Z,49.30
2019-05-26T12:44:20.919Z,49.90
2019-05-26T12:46:48.713Z,50.70
2019-05-26T12:49:16.341Z,51.30
2019-05-26T12:51:43.963Z,52.10
2019-05-26T12:54:11.578Z,51.50
2019-05-26T12:56:39.172Z,51.90
2019-05-26T12:59:07.247Z,51.80
2019-05-26T13:01:34.922Z,52.20
2019-05-26T13:04:02.926Z,52.70
2019-05-26T13:06:30.559Z,52.40
2019-05-26T13:08:58.170Z,53.40
2019-05-26T13:11:25.820Z,52.90
2019-05-26T13:13:53.429Z,53.70
2019-05-26T13:16:21.168Z,54.20
2019-05-26T13:18:48.941Z,53.10
2019-05-26T13:21:16.622Z,51.50
2019-05-26T13:23:44.219Z,52.00
2019-05-26T13:26:11.882Z,49.80
2019-05-26T13:28:39.546Z,50.70
2019-05-26T13:31:07.132Z,51.60
2019-05-26T13:33:34.752Z,48.50
2019-05-26T13:36:02.481Z,49.70
2019-05-26T13:38:30.240Z,49.20
2019-05-26T13:40:57.856Z,48.70
2019-05-26T13:43:26.694Z,47.40
2019-05-26T13:45:54.297Z,47.50
2019-05-26T13:48:22.025Z,47.60
2019-05-26T13:50:49.713Z,46.60
2019-05-26T13:53:17.450Z,46.30
2019-05-26T13:55:45.090Z,47.60
2019-05-26T13:58:12.729Z,47.10
2019-05-26T14:00:40.357Z,45.90
2019-05-26T14:03:07.998Z,45.60
2019-05-26T14:05:35.644Z,44.80
2019-05-26T14:08:03.341Z,43.70
2019-05-26T14:10:36.799Z,42.80
2019-05-26T14:13:05.080Z,43.60
2019-05-26T14:15:37.984Z,43.10
2019-05-26T14:18:02.529Z,43.60
2019-05-26T14:20:35.053Z,41.50
2019-05-26T14:23:02.810Z,42.80
2019-05-26T14:25:30.364Z,43.90
2019-05-26T14:27:58.074Z,43.50
2019-05-26T14:30:25.819Z,44.70
2019-05-26T14:32:53.550Z,45.20
2019-05-26T14:35:21.293Z,43.50
2019-05-26T14:37:49.066Z,44.00
2019-05-26T14:40:16.785Z,44.80
2019-05-26T14:42:44.434Z,44.40
2019-05-26T14:45:12.162Z,43.00
2019-05-26T14:47:39.776Z,41.90
2019-05-26T14:50:07.779Z,40.60
2019-05-26T14:52:35.454Z,40.40
2019-05-26T14:55:03.467Z,41.80
2019-05-26T14:57:31.273Z,44.10
2019-05-26T14:59:58.950Z,44.80
2019-05-26T15:02:26.560Z,45.80
2019-05-26T15:04:54.550Z,46.20
2019-05-26T15:07:22.286Z,45.80
2019-05-26T15:09:50.019Z,44.80
2019-05-26T15:12:17.622Z,45.40
2019-05-26T15:14:45.261Z,45.40
2019-05-26T15:17:12.887Z,46.70
2019-05-26T15:19:40.506Z,47.50
2019-05-26T15:22:08.130Z,44.80
2019-05-26T15:24:35.735Z,44.40
2019-05-26T15:27:03.442Z,45.40
2019-05-26T15:29:31.081Z,44.10
2019-05-26T15:31:59.083Z,43.40
2019-05-26T15:34:26.725Z,42.60
2019-05-26T15:36:54.425Z,41.70
2019-05-26T15:39:22.153Z,42.20
2019-05-26T15:41:49.769Z,42.60
2019-05-26T15:44:17.441Z,43.30
2019-05-26T15:46:45.041Z,43.00
2019-05-26T15:49:12.666Z,42.90
2019-05-26T15:51:40.273Z,42.50
2019-05-26T15:54:07.922Z,42.00
2019-05-26T15:56:35.528Z,43.60
2019-05-26T15:59:03.157Z,44.50
2019-05-26T16:01:30.801Z,43.90
2019-05-26T16:03:58.412Z,44.30
2019-05-26T16:06:26.094Z,44.00
2019-05-26T16:08:53.741Z,44.20
2019-05-26T16:11:21.481Z,43.80
2019-05-26T16:13:49.265Z,44.80
2019-05-26T16:16:16.795Z,45.80
2019-05-26T16:18:44.413Z,46.10
2019-05-26T16:21:26.984Z,45.60
2019-05-26T16:23:41.482Z,46.60
2019-05-26T16:26:09.125Z,46.00
2019-05-26T16:28:37.790Z,45.80
2019-05-26T16:31:05.381Z,45.90
2019-05-26T16:33:32.962Z,45.80
2019-05-26T16:36:00.634Z,47.30
2019-05-26T16:38:28.337Z,46.80
2019-05-26T16:40:55.997Z,46.10
2019-05-26T16:43:23.590Z,46.00
2019-05-26T16:45:56.196Z,46.30
2019-05-26T16:48:21.071Z,46.50
2019-05-26T16:50:48.752Z,47.20
2019-05-26T16:53:16.731Z,47.30
2019-05-26T16:55:44.430Z,47.60
2019-05-26T16:58:12.221Z,48.10
2019-05-26T17:00:39.905Z,48.90
2019-05-26T17:03:07.789Z,48.90
2019-05-26T17:05:35.545Z,48.80
2019-05-26T17:08:03.235Z,49.60
2019-05-26T17:10:30.861Z,49.90
2019-05-26T17:12:58.509Z,50.10
2019-05-26T17:15:26.181Z,50.40
2019-05-26T17:17:53.798Z,50.40
2019-05-26T17:20:21.637Z,50.70
2019-05-26T17:22:49.300Z,51.30
2019-05-26T17:25:17.147Z,51.80
2019-05-26T17:27:44.771Z,51.40
2019-05-26T17:30:12.674Z,52.00
2019-05-26T17:32:40.289Z,51.80
2019-05-26T17:35:07.897Z,51.40
2019-05-26T17:37:38.346Z,51.30
2019-05-26T17:40:07.253Z,51.50
2019-05-26T17:42:34.881Z,51.80
2019-05-26T17:45:02.599Z,51.50
2019-05-26T17:47:31.050Z,50.70
2019-05-26T17:49:58.734Z,50.70
2019-05-26T17:52:26.327Z,51.10
2019-05-26T17:54:53.985Z,51.10
2019-05-26T17:57:21.799Z,50.30
2019-05-26T17:59:49.413Z,50.70
2019-05-26T18:02:17.038Z,51.20
2019-05-26T18:04:44.854Z,51.70
2019-05-26T18:07:12.505Z,51.80
2019-05-26T18:09:44.101Z,51.80
2019-05-26T18:12:09.849Z,51.20
2019-05-26T18:14:37.443Z,52.00
2019-05-26T18:17:05.037Z,51.00
2019-05-26T18:19:32.675Z,51.30
2019-05-26T18:22:00.310Z,52.50
2019-05-26T18:24:27.962Z,52.40
2019-05-26T18:26:55.634Z,51.20
2019-05-26T18:29:23.338Z,50.50
2019-05-26T18:31:51.133Z,49.30
2019-05-26T18:34:18.777Z,49.60
2019-05-26T18:36:46.563Z,50.30
2019-05-26T18:39:14.137Z,50.10
2019-05-26T18:41:41.780Z,50.50
2019-05-26T18:44:09.390Z,51.50
2019-05-26T18:46:37.033Z,51.60
2019-05-26T18:49:04.777Z,52.40
2019-05-26T18:51:32.381Z,52.70
2019-05-26T18:54:00.082Z,53.00
2019-05-26T18:56:27.878Z,53.10
2019-05-26T18:58:55.583Z,53.10
2019-05-26T19:01:23.669Z,54.10
2019-05-26T19:03:51.412Z,54.00
2019-05-26T19:06:19.126Z,53.50
2019-05-26T19:08:46.989Z,53.60
2019-05-26T19:11:14.795Z,53.60
2019-05-26T19:13:42.543Z,53.80
2019-05-26T19:16:10.349Z,54.40
2019-05-26T19:18:38.014Z,56.20
2019-05-26T19:21:05.688Z,59.30
2019-05-26T19:23:34.372Z,60.80
2019-05-26T19:26:02.104Z,62.10
2019-05-26T19:28:29.705Z,62.70
2019-05-26T19:30:57.445Z,63.70
2019-05-26T19:33:25.228Z,64.30
2019-05-26T19:35:53.090Z,65.20
2019-05-26T19:38:20.745Z,65.70
2019-05-26T19:40:49.604Z,66.30
2019-05-26T19:43:17.297Z,66.90
2019-05-26T19:45:44.966Z,67.00
2019-05-26T19:48:12.771Z,67.20
2019-05-26T19:50:40.496Z,67.60
2019-05-26T19:53:08.200Z,68.00
2019-05-26T19:55:35.893Z,68.10
2019-05-26T19:58:03.815Z,68.70
2019-05-26T20:00:31.422Z,68.80
2019-05-26T20:02:59.045Z,68.80
2019-05-26T20:05:26.753Z,69.20
2019-05-26T20:07:54.493Z,69.40
2019-05-26T20:10:22.604Z,70.00
2019-05-26T20:12:50.215Z,70.50
2019-05-26T20:15:18.278Z,70.80
2019-05-26T20:17:45.945Z,71.30
2019-05-26T20:20:14.344Z,71.60
2019-05-26T20:22:41.974Z,71.80
2019-05-26T20:25:09.706Z,72.00
2019-05-26T20:27:37.330Z,72.10
2019-05-26T20:30:05.361Z,71.80
2019-05-26T20:32:32.951Z,71.60
2019-05-26T20:35:00.594Z,71.60
2019-05-26T20:37:28.293Z,71.60
2019-05-26T20:39:56.009Z,71.80
2019-05-26T20:42:23.621Z,71.90
2019-05-26T20:44:51.394Z,71.90
2019-05-26T20:47:19.008Z,72.00
2019-05-26T20:49:46.648Z,72.30
2019-05-26T20:52:14.380Z,72.70
2019-05-26T20:54:44.049Z,72.90
2019-05-26T20:57:11.709Z,73.00
2019-05-26T20:59:39.374Z,72.50
2019-05-26T21:02:07.401Z,72.10
2019-05-26T21:04:35.007Z,72.30
2019-05-26T21:07:03.433Z,72.30
2019-05-26T21:09:31.180Z,71.60
2019-05-26T21:11:58.801Z,71.90
2019-05-26T21:14:26.607Z,72.30
2019-05-26T21:16:54.249Z,72.80
2019-05-26T21:19:21.886Z,73.50
2019-05-26T21:21:49.633Z,73.50
2019-05-26T21:24:17.350Z,73.90
2019-05-26T21:26:45.094Z,74.90
2019-05-26T21:29:13.132Z,74.50
2019-05-26T21:31:41.157Z,74.90
2019-05-26T21:34:08.934Z,74.90
2019-05-26T21:36:36.633Z,75.10
2019-05-26T21:39:06.682Z,75.60
2019-05-26T21:41:34.342Z,75.70
2019-05-26T21:44:02.117Z,75.60
2019-05-26T21:46:30.175Z,76.10
2019-05-26T21:48:57.896Z,77.30
2019-05-26T21:51:25.557Z,77.60
2019-05-26T21:53:53.358Z,78.10
2019-05-26T21:56:21.303Z,77.80
2019-05-26T21:58:49.519Z,77.50
2019-05-26T22:01:17.326Z,77.60
2019-05-26T22:03:45.004Z,77.60
2019-05-26T22:06:12.880Z,77.60
2019-05-26T22:08:40.438Z,77.30
2019-05-26T22:11:10.926Z,77.50
2019-05-26T22:13:38.586Z,77.20
2019-05-26T22:16:06.197Z,77.10
2019-05-26T22:18:33.829Z,77.70
2019-05-26T22:21:01.449Z,77.70
2019-05-26T22:23:29.074Z,77.90
2019-05-26T22:25:56.683Z,78.30
2019-05-26T22:28:24.407Z,78.60
2019-05-26T22:30:52.102Z,78.90
2019-05-26T22:33:19.714Z,79.40
2019-05-26T22:35:47.393Z,78.90
2019-05-26T22:38:15.018Z,78.80
2019-05-26T22:40:42.629Z,78.80
2019-05-26T22:43:10.257Z,79.10
2019-05-26T22:45:39.163Z,79.30
2019-05-26T22:48:06.808Z,79.20
2019-05-26T22:50:34.493Z,79.40
2019-05-26T22:53:02.097Z,79.30
2019-05-26T22:55:29.698Z,79.60
2019-05-26T22:57:57.454Z,79.60
2019-05-26T23:00:25.145Z,80.00
2019-05-26T23:02:52.762Z,80.00
2019-05-26T23:05:20.372Z,80.10
2019-05-26T23:07:48.056Z,80.50
2019-05-26T23:10:15.749Z,80.50
2019-05-26T23:12:43.369Z,80.60
2019-05-26T23:15:11.205Z,81.00
2019-05-26T23:17:38.846Z,82.10
2019-05-26T23:20:08.189Z,81.40
2019-05-26T23:22:35.801Z,81.80
2019-05-26T23:25:03.947Z,82.00
2019-05-26T23:27:31.517Z,82.00
2019-05-26T23:29:59.231Z,81.60
2019-05-26T23:32:26.885Z,81.90
2019-05-26T23:34:54.485Z,81.30
2019-05-26T23:37:22.061Z,81.10
2019-05-26T23:39:49.673Z,81.90
2019-05-26T23:42:17.420Z,81.60
2019-05-26T23:44:45.957Z,81.90
2019-05-26T23:47:13.575Z,82.60
2019-05-26T23:49:41.973Z,83.20
2019-05-26T23:52:09.603Z,83.10
2019-05-26T23:54:40.758Z,82.80
2019-05-26T23:57:08.410Z,83.00
2019-05-26T23:59:36.701Z,83.00
